Terminal Aerodrome Forecast
Issued by NWS

Home | Current Version | Previous Version | Text Only | Print | Product List | Glossary On
Versions: 1 2 3 4 5 6 7 8 9 10 11 12 13 14 15 16 17
000
FTAK31 PANC 311741
TAFACD
TAF
PACD 311741Z 3118/0118 25025G40KT 6SM -SHRA BKN030 OVC060
     FM010000 27020G30KT P6SM -SHRA BKN030 OVC040
     FM010900 27020G28KT P6SM -SHRA BKN015 OVC030=

USA.gov is the U.S. government's official web portal to all federal, state and local government web resources and services.